Time;durP1;ratioP1;P1;durP2;ratioP2;P2;SDS_P1;SDS_P2;PMS_P1;PMS_P2;Temp;Humidity;BMP_temperature;BMP_pressure;BME280_temperature;BME280_humidity;BME280_pressure;Samples;Min_cycle;Max_cycle;Signal;HPM_P1;HPM_P2
2023/12/22 00:00:48;;;;;;;3.70;1.60;;;;;;;;;;107476;1251;59889;-82
2023/12/22 00:03:35;;;;;;;4.80;2.10;;;;;;;;;;107489;1251;61227;-81
2023/12/22 00:06:02;;;;;;;3.40;1.80;;;;;;;;;;107473;1251;59839;-81
2023/12/22 00:08:28;;;;;;;4.20;1.90;;;;;;;;;;109477;1251;58810;-81
2023/12/22 00:10:55;;;;;;;4.30;2.20;;;;;;;;;;109526;1251;61623;-81
2023/12/22 00:13:21;;;;;;;5.80;2.40;;;;;;;;;;109514;1251;58899;-81
2023/12/22 00:15:48;;;;;;;4.70;2.40;;;;;;;;;;109483;1251;58974;-81
2023/12/22 00:18:14;;;;;;;4.50;2.30;;;;;;;;;;109486;1251;58898;-81
2023/12/22 00:20:41;;;;;;;6.00;2.80;;;;;;;;;;109508;1252;58982;-81
2023/12/22 00:23:07;;;;;;;6.00;3.30;;;;;;;;;;109562;1251;59215;-79
2023/12/22 00:25:34;;;;;;;3.30;1.60;;;;;;;;;;109593;1251;59103;-80
2023/12/22 00:28:00;;;;;;;12.80;8.10;;;;;;;;;;109578;1251;59316;-81
2023/12/22 00:30:27;;;;;;;7.80;2.00;;;;;;;;;;109115;1251;59164;-82
2023/12/22 00:32:53;;;;;;;4.40;2.50;;;;;;;;;;107573;1251;59449;-81
2023/12/22 00:35:20;;;;;;;5.70;2.50;;;;;;;;;;107573;1251;59758;-80
2023/12/22 00:37:47;;;;;;;7.10;4.70;;;;;;;;;;107567;1251;59848;-80
2023/12/22 00:40:13;;;;;;;6.40;3.30;;;;;;;;;;107593;1251;59946;-80
2023/12/22 00:42:39;;;;;;;9.60;4.50;;;;;;;;;;107001;1252;60816;-81
2023/12/22 00:45:06;;;;;;;13.30;7.10;;;;;;;;;;107026;1251;62019;-80
2023/12/22 00:47:35;;;;;;;13.90;6.80;;;;;;;;;;107023;1251;61887;-80
2023/12/22 00:50:02;;;;;;;;;;;;;;;;;;107031;1251;59860;-81
2023/12/22 00:52:28;;;;;;;5.40;2.50;;;;;;;;;;107007;1251;61732;-80
2023/12/22 00:54:55;;;;;;;3.50;1.90;;;;;;;;;;106977;1254;60933;-80
2023/12/22 00:57:22;;;;;;;3.60;1.20;;;;;;;;;;106950;1253;59531;-80
2023/12/22 00:59:48;;;;;;;2.60;1.30;;;;;;;;;;109506;1252;63186;-80
2023/12/22 01:02:15;;;;;;;4.10;1.40;;;;;;;;;;109506;1252;59274;-81
2023/12/22 01:04:42;;;;;;;5.00;1.10;;;;;;;;;;109485;1252;59565;-81
2023/12/22 01:07:08;;;;;;;2.50;1.90;;;;;;;;;;109494;1251;58906;-80
2023/12/22 01:09:37;;;;;;;11.60;2.80;;;;;;;;;;109483;1252;58784;-81
2023/12/22 01:12:04;;;;;;;5.40;2.50;;;;;;;;;;109480;1252;61863;-81
2023/12/22 01:14:31;;;;;;;3.60;1.80;;;;;;;;;;109488;1252;58985;-81
2023/12/22 01:16:59;;;;;;;13.10;3.10;;;;;;;;;;109482;1252;58921;-81
2023/12/22 01:19:25;;;;;;;4.00;1.80;;;;;;;;;;107650;1251;61167;-80
2023/12/22 01:21:52;;;;;;;6.00;1.40;;;;;;;;;;107520;1251;60932;-80
2023/12/22 01:24:18;;;;;;;11.80;3.10;;;;;;;;;;106986;1251;61565;-80
2023/12/22 01:26:45;;;;;;;4.80;1.50;;;;;;;;;;106976;1252;59738;-80
2023/12/22 01:29:11;;;;;;;4.30;0.90;;;;;;;;;;106919;1251;60828;-80
2023/12/22 01:31:38;;;;;;;2.80;1.30;;;;;;;;;;106961;1251;59700;-80
2023/12/22 01:34:04;;;;;;;4.40;1.70;;;;;;;;;;106982;1251;60749;-80
2023/12/22 01:36:31;;;;;;;2.90;0.90;;;;;;;;;;106984;1251;59898;-81
2023/12/22 01:38:57;;;;;;;4.10;1.00;;;;;;;;;;106968;1251;59709;-80
2023/12/22 01:41:23;;;;;;;4.90;1.70;;;;;;;;;;107022;1251;59879;-80
2023/12/22 01:43:50;;;;;;;3.60;1.70;;;;;;;;;;106967;1251;59816;-80
2023/12/22 01:46:16;;;;;;;4.40;1.50;;;;;;;;;;107039;1251;59723;-80
2023/12/22 01:48:43;;;;;;;5.90;1.60;;;;;;;;;;106996;1251;60974;-80
2023/12/22 01:51:09;;;;;;;4.30;1.70;;;;;;;;;;107010;1254;59226;-81
2023/12/22 01:53:36;;;;;;;8.70;1.60;;;;;;;;;;106928;1251;60736;-80
2023/12/22 01:56:03;;;;;;;5.00;1.70;;;;;;;;;;106935;1252;60889;-81
2023/12/22 01:58:29;;;;;;;3.10;1.50;;;;;;;;;;106944;1251;59127;-80
2023/12/22 02:00:56;;;;;;;4.20;1.90;;;;;;;;;;106910;1253;60946;-80
2023/12/22 02:03:22;;;;;;;6.70;3.00;;;;;;;;;;106853;1251;60778;-80
2023/12/22 02:05:49;;;;;;;3.80;1.40;;;;;;;;;;106946;1251;59758;-81
2023/12/22 02:08:17;;;;;;;5.60;1.40;;;;;;;;;;107338;1251;59823;-80
2023/12/22 02:10:44;;;;;;;4.20;1.60;;;;;;;;;;107518;1251;59516;-81
2023/12/22 02:13:11;;;;;;;5.30;1.60;;;;;;;;;;107525;1252;61692;-81
2023/12/22 02:15:37;;;;;;;3.90;1.70;;;;;;;;;;107480;1251;59758;-81
2023/12/22 02:18:08;;;;;;;5.60;1.90;;;;;;;;;;107405;1253;59698;-81
2023/12/22 02:20:34;;;;;;;5.60;1.60;;;;;;;;;;107516;1252;59819;-82
2023/12/22 02:23:01;;;;;;;5.60;2.10;;;;;;;;;;107570;1251;60857;-81
2023/12/22 02:25:27;;;;;;;4.50;2.10;;;;;;;;;;107627;1251;60871;-81
2023/12/22 02:27:56;;;;;;;5.60;2.30;;;;;;;;;;107532;1253;60233;-81
2023/12/22 02:30:43;;;;;;;7.70;2.70;;;;;;;;;;107544;1251;60798;-80
2023/12/22 02:33:10;;;;;;;5.00;1.60;;;;;;;;;;107490;1251;59107;-80
2023/12/22 02:35:36;;;;;;;9.00;2.00;;;;;;;;;;107554;1251;60145;-80
2023/12/22 02:38:03;;;;;;;6.10;1.30;;;;;;;;;;107559;1251;62819;-80
2023/12/22 02:40:29;;;;;;;3.90;1.50;;;;;;;;;;107599;1251;60789;-80
2023/12/22 02:42:56;;;;;;;1.80;1.20;;;;;;;;;;107507;1251;60861;-80
2023/12/22 02:45:23;;;;;;;1.10;1.00;;;;;;;;;;107553;1251;61304;-80
2023/12/22 02:47:49;;;;;;;4.70;2.00;;;;;;;;;;107504;1250;60812;-81
2023/12/22 02:50:16;;;;;;;7.50;1.60;;;;;;;;;;107457;1251;61161;-81
2023/12/22 02:52:42;;;;;;;4.60;1.50;;;;;;;;;;107574;1250;59850;-81
2023/12/22 02:55:09;;;;;;;5.90;1.30;;;;;;;;;;107498;1251;60899;-81
2023/12/22 02:57:35;;;;;;;6.20;1.70;;;;;;;;;;107494;1251;59827;-81
2023/12/22 03:00:02;;;;;;;7.60;1.70;;;;;;;;;;107443;1253;59833;-81
2023/12/22 03:02:28;;;;;;;4.90;1.70;;;;;;;;;;107439;1251;62838;-81
2023/12/22 03:04:55;;;;;;;2.50;1.10;;;;;;;;;;107442;1251;60833;-81
2023/12/22 03:07:21;;;;;;;3.30;1.40;;;;;;;;;;107399;1252;59269;-80
2023/12/22 03:09:48;;;;;;;3.40;1.40;;;;;;;;;;107358;1253;60808;-80
2023/12/22 03:12:14;;;;;;;8.40;2.60;;;;;;;;;;107488;1253;59739;-81
2023/12/22 03:14:41;;;;;;;1.70;1.10;;;;;;;;;;107518;1253;59704;-81
2023/12/22 03:17:07;;;;;;;4.90;1.70;;;;;;;;;;107454;1252;59755;-80
2023/12/22 03:19:34;;;;;;;3.10;2.00;;;;;;;;;;107439;1253;60918;-81
2023/12/22 03:22:01;;;;;;;7.00;2.10;;;;;;;;;;107522;1250;59881;-81
2023/12/22 03:24:28;;;;;;;6.80;2.60;;;;;;;;;;107620;1251;59684;-81
2023/12/22 03:26:54;;;;;;;4.20;2.40;;;;;;;;;;107601;1251;61673;-81
2023/12/22 03:29:21;;;;;;;6.50;5.70;;;;;;;;;;107600;1251;61327;-80
2023/12/22 03:31:47;;;;;;;4.50;2.20;;;;;;;;;;107858;1251;59129;-81
2023/12/22 03:34:14;;;;;;;5.20;2.60;;;;;;;;;;107800;1251;59734;-81
2023/12/22 03:36:40;;;;;;;4.50;3.10;;;;;;;;;;107553;1253;59959;-81
2023/12/22 03:39:07;;;;;;;1.80;1.50;;;;;;;;;;107556;1251;59740;-81
2023/12/22 03:41:34;;;;;;;5.30;1.40;;;;;;;;;;107508;1251;60813;-81
2023/12/22 03:44:00;;;;;;;2.80;1.50;;;;;;;;;;107527;1251;59803;-80
2023/12/22 03:46:27;;;;;;;3.50;1.20;;;;;;;;;;107458;1250;59872;-80
2023/12/22 03:48:54;;;;;;;7.00;1.50;;;;;;;;;;107568;1251;59838;-80
2023/12/22 03:51:20;;;;;;;6.70;3.20;;;;;;;;;;107544;1251;61975;-80
2023/12/22 03:53:47;;;;;;;12.30;5.20;;;;;;;;;;107449;1253;59774;-81
2023/12/22 03:56:13;;;;;;;6.90;3.10;;;;;;;;;;108748;1252;60788;-80
2023/12/22 03:58:40;;;;;;;6.50;2.20;;;;;;;;;;109485;1252;59128;-80
2023/12/22 04:01:09;;;;;;;5.20;2.90;;;;;;;;;;108455;1252;59114;-80
2023/12/22 04:03:35;;;;;;;21.40;8.80;;;;;;;;;;107444;1253;60417;-80
2023/12/22 04:06:02;;;;;;;17.10;9.50;;;;;;;;;;106924;1253;59936;-80
2023/12/22 04:08:29;;;;;;;37.90;20.60;;;;;;;;;;106856;1253;61676;-80
2023/12/22 04:10:55;;;;;;;7.90;4.50;;;;;;;;;;106916;1255;62002;-80
2023/12/22 04:13:22;;;;;;;5.10;3.20;;;;;;;;;;107422;1251;61568;-80
2023/12/22 04:15:49;;;;;;;10.20;2.00;;;;;;;;;;107491;1252;62848;-80
2023/12/22 04:18:15;;;;;;;8.70;1.60;;;;;;;;;;106868;1253;59813;-81
2023/12/22 04:20:41;;;;;;;5.20;1.40;;;;;;;;;;107452;1253;59237;-81
2023/12/22 04:23:08;;;;;;;8.30;1.80;;;;;;;;;;107489;1251;59818;-81
2023/12/22 04:25:34;;;;;;;6.30;1.90;;;;;;;;;;107619;1251;59741;-80
2023/12/22 04:28:01;;;;;;;6.10;2.00;;;;;;;;;;107571;1251;60265;-81
2023/12/22 04:30:28;;;;;;;6.10;2.90;;;;;;;;;;107590;1251;62110;-81
2023/12/22 04:32:56;;;;;;;7.40;2.40;;;;;;;;;;107566;1253;60362;-81
2023/12/22 04:35:22;;;;;;;11.60;4.00;;;;;;;;;;107577;1250;59893;-81
2023/12/22 04:37:49;;;;;;;54.90;21.40;;;;;;;;;;107562;1250;59467;-81
2023/12/22 04:40:15;;;;;;;14.20;5.40;;;;;;;;;;107548;1251;60731;-81
2023/12/22 04:42:42;;;;;;;7.80;4.00;;;;;;;;;;107609;1251;59576;-80
2023/12/22 04:45:08;;;;;;;10.30;5.90;;;;;;;;;;107476;1250;59171;-80
2023/12/22 04:47:35;;;;;;;71.50;30.70;;;;;;;;;;107048;1251;59820;-80
2023/12/22 04:50:01;;;;;;;39.80;18.50;;;;;;;;;;107069;1253;59897;-80
2023/12/22 04:52:28;;;;;;;31.30;12.50;;;;;;;;;;107012;1254;60846;-80
2023/12/22 04:54:56;;;;;;;9.10;5.60;;;;;;;;;;107549;1251;60799;-80
2023/12/22 04:57:22;;;;;;;11.20;4.30;;;;;;;;;;107448;1253;59829;-80
2023/12/22 04:59:49;;;;;;;22.60;6.80;;;;;;;;;;107422;1253;60664;-80
2023/12/22 05:02:15;;;;;;;21.00;6.50;;;;;;;;;;107383;1253;59797;-80
2023/12/22 05:04:42;;;;;;;8.00;4.70;;;;;;;;;;107432;1253;59888;-80
2023/12/22 05:07:10;;;;;;;7.80;4.20;;;;;;;;;;107289;1253;60794;-80
2023/12/22 05:09:37;;;;;;;12.40;4.80;;;;;;;;;;107444;1253;60820;-80
2023/12/22 05:12:03;;;;;;;14.00;6.50;;;;;;;;;;107309;1253;59821;-80
2023/12/22 05:14:29;;;;;;;9.00;5.00;;;;;;;;;;107452;1253;60804;-80
2023/12/22 05:16:56;;;;;;;10.00;3.00;;;;;;;;;;107419;1252;60088;-82
2023/12/22 05:19:23;;;;;;;13.90;5.50;;;;;;;;;;107427;1253;59921;-81
2023/12/22 05:21:52;;;;;;;13.80;4.10;;;;;;;;;;107498;1255;59647;-81
2023/12/22 05:24:19;;;;;;;9.40;4.00;;;;;;;;;;106947;1253;59823;-81
2023/12/22 05:26:45;;;;;;;10.90;3.60;;;;;;;;;;107480;1253;60818;-80
2023/12/22 05:29:12;;;;;;;9.50;4.10;;;;;;;;;;107544;1251;59172;-81
2023/12/22 05:31:39;;;;;;;9.90;4.20;;;;;;;;;;107532;1251;59260;-80
2023/12/22 05:34:06;;;;;;;13.40;2.70;;;;;;;;;;107479;1251;59770;-81
2023/12/22 05:36:32;;;;;;;3.90;2.10;;;;;;;;;;107513;1251;59444;-81
2023/12/22 05:38:59;;;;;;;7.10;3.40;;;;;;;;;;107492;1252;59806;-81
2023/12/22 05:41:25;;;;;;;8.40;3.00;;;;;;;;;;107526;1251;60940;-81
2023/12/22 05:43:52;;;;;;;10.40;2.30;;;;;;;;;;107523;1251;59961;-81
2023/12/22 05:46:19;;;;;;;16.00;10.60;;;;;;;;;;107575;1251;60727;-81
2023/12/22 05:48:45;;;;;;;8.10;4.40;;;;;;;;;;107496;1251;59734;-80
2023/12/22 05:51:13;;;;;;;10.50;3.70;;;;;;;;;;107550;1253;59792;-81
2023/12/22 05:53:40;;;;;;;5.40;2.70;;;;;;;;;;107513;1251;61000;-81
2023/12/22 05:56:22;;;;;;;2.40;1.50;;;;;;;;;;107550;1253;61241;-80
2023/12/22 05:58:48;;;;;;;4.00;1.60;;;;;;;;;;107488;1253;59567;-80
2023/12/22 06:01:16;;;;;;;5.70;1.80;;;;;;;;;;107430;1253;59781;-80
2023/12/22 06:03:43;;;;;;;14.80;9.20;;;;;;;;;;107610;1253;60834;-80
2023/12/22 06:06:09;;;;;;;10.10;4.20;;;;;;;;;;107574;1251;59605;-80
2023/12/22 06:08:36;;;;;;;11.10;3.10;;;;;;;;;;107556;1255;59822;-81
2023/12/22 06:11:03;;;;;;;4.80;2.20;;;;;;;;;;107057;1251;59812;-81
2023/12/22 06:13:29;;;;;;;18.90;7.00;;;;;;;;;;107056;1251;59846;-80
2023/12/22 06:15:56;;;;;;;22.50;14.20;;;;;;;;;;107144;1251;60947;-80
2023/12/22 06:18:23;;;;;;;17.60;4.50;;;;;;;;;;107038;1251;60470;-80
2023/12/22 06:20:49;;;;;;;25.50;14.60;;;;;;;;;;107320;1253;59769;-80
2023/12/22 06:23:16;;;;;;;13.70;6.40;;;;;;;;;;107105;1251;60928;-80
2023/12/22 06:25:43;;;;;;;20.00;5.40;;;;;;;;;;107105;1251;60946;-80
2023/12/22 06:28:09;;;;;;;14.50;3.40;;;;;;;;;;106795;1253;59799;-80
2023/12/22 06:30:36;;;;;;;17.80;4.70;;;;;;;;;;109638;1251;59203;-81
2023/12/22 06:33:03;;;;;;;8.10;4.00;;;;;;;;;;109503;1251;171242;-80
2023/12/22 06:35:31;;;;;;;13.60;4.20;;;;;;;;;;109552;1251;59519;-81
2023/12/22 06:38:01;;;;;;;11.20;3.60;;;;;;;;;;109585;1250;59097;-81
2023/12/22 06:40:27;;;;;;;9.40;3.00;;;;;;;;;;109636;1251;59178;-81
2023/12/22 06:42:54;;;;;;;8.00;3.50;;;;;;;;;;109622;1253;62553;-81
2023/12/22 06:45:20;;;;;;;19.70;7.10;;;;;;;;;;109617;1251;58841;-81
2023/12/22 06:47:47;;;;;;;10.20;6.00;;;;;;;;;;109637;1251;58789;-81
2023/12/22 06:50:13;;;;;;;11.80;4.40;;;;;;;;;;108946;1252;59168;-81
2023/12/22 06:52:40;;;;;;;9.70;5.60;;;;;;;;;;107477;1251;60827;-80
2023/12/22 06:55:06;;;;;;;8.40;4.30;;;;;;;;;;107151;1251;60891;-81
2023/12/22 06:57:33;;;;;;;8.90;3.70;;;;;;;;;;107130;1253;59907;-81
2023/12/22 07:00:00;;;;;;;9.60;3.70;;;;;;;;;;107101;1252;61187;-80
2023/12/22 07:02:27;;;;;;;9.30;4.30;;;;;;;;;;107159;1252;59809;-80
2023/12/22 07:05:04;;;;;;;7.20;4.50;;;;;;;;;;107222;1254;59268;-80
2023/12/22 07:07:31;;;;;;;8.80;4.00;;;;;;;;;;107302;1253;62515;-81
2023/12/22 07:09:58;;;;;;;13.50;4.60;;;;;;;;;;107142;1253;59838;-80
2023/12/22 07:12:24;;;;;;;36.10;4.40;;;;;;;;;;106788;1251;59829;-80
2023/12/22 07:14:51;;;;;;;10.30;3.60;;;;;;;;;;106828;1253;60804;-80
2023/12/22 07:17:17;;;;;;;9.80;4.20;;;;;;;;;;106718;1251;59731;-80
2023/12/22 07:19:44;;;;;;;12.00;5.30;;;;;;;;;;106970;1254;59767;-80
2023/12/22 07:22:10;;;;;;;8.20;3.40;;;;;;;;;;106980;1253;59715;-80
2023/12/22 07:24:37;;;;;;;15.80;3.10;;;;;;;;;;107051;1253;60439;-80
2023/12/22 07:27:04;;;;;;;7.30;2.80;;;;;;;;;;106949;1252;60667;-80
2023/12/22 07:29:30;;;;;;;6.00;2.70;;;;;;;;;;107089;1252;59674;-80
2023/12/22 07:31:57;;;;;;;10.40;3.90;;;;;;;;;;107117;1251;59769;-80
2023/12/22 07:34:23;;;;;;;13.10;5.00;;;;;;;;;;107154;1253;60789;-80
2023/12/22 07:36:50;;;;;;;9.80;4.50;;;;;;;;;;107052;1253;59924;-80
2023/12/22 07:39:18;;;;;;;9.40;2.60;;;;;;;;;;107693;1251;60666;-81
2023/12/22 07:41:45;;;;;;;10.60;3.60;;;;;;;;;;107873;1250;59902;-80
2023/12/22 07:44:12;;;;;;;14.00;7.30;;;;;;;;;;107457;1250;60875;-80
2023/12/22 07:46:39;;;;;;;8.50;4.80;;;;;;;;;;107314;1251;62114;-81
2023/12/22 07:49:05;;;;;;;6.30;2.30;;;;;;;;;;107344;1255;60820;-80
2023/12/22 07:51:32;;;;;;;5.80;2.50;;;;;;;;;;107395;1255;59348;-80
2023/12/22 07:53:59;;;;;;;5.40;2.60;;;;;;;;;;107308;1254;60926;-80
2023/12/22 07:56:25;;;;;;;6.60;4.10;;;;;;;;;;107537;1252;59682;-80
2023/12/22 07:58:53;;;;;;;5.80;3.30;;;;;;;;;;107073;1253;59767;-80
2023/12/22 08:01:19;;;;;;;5.60;2.00;;;;;;;;;;107140;1252;60795;-80
2023/12/22 08:03:46;;;;;;;8.00;3.30;;;;;;;;;;107132;1255;59965;-80
2023/12/22 08:06:14;;;;;;;4.80;2.40;;;;;;;;;;107119;1251;61029;-81
2023/12/22 08:08:40;;;;;;;2.60;1.60;;;;;;;;;;107071;1251;61883;-80
2023/12/22 08:11:08;;;;;;;4.40;1.80;;;;;;;;;;106942;1256;59664;-80
2023/12/22 08:13:34;;;;;;;4.10;1.90;;;;;;;;;;107147;1253;62002;-79
2023/12/22 08:16:01;;;;;;;4.90;2.70;;;;;;;;;;107146;1254;60865;-80
2023/12/22 08:18:27;;;;;;;10.50;5.90;;;;;;;;;;107045;1255;61039;-81
2023/12/22 08:20:54;;;;;;;10.70;7.40;;;;;;;;;;107281;1251;60646;-80
2023/12/22 08:23:21;;;;;;;6.70;2.40;;;;;;;;;;107144;1251;60557;-80
2023/12/22 08:25:48;;;;;;;18.00;6.70;;;;;;;;;;107086;1255;60403;-80
2023/12/22 08:28:14;;;;;;;7.40;3.40;;;;;;;;;;106989;1253;59739;-80
2023/12/22 08:30:41;;;;;;;14.30;5.80;;;;;;;;;;107433;1256;60988;-80
2023/12/22 08:33:07;;;;;;;23.00;7.50;;;;;;;;;;109529;1251;59230;-80
2023/12/22 08:35:34;;;;;;;9.40;5.10;;;;;;;;;;109518;1252;58994;-80
2023/12/22 08:38:01;;;;;;;63.90;26.00;;;;;;;;;;109551;1252;60769;-80
2023/12/22 08:40:28;;;;;;;68.50;27.20;;;;;;;;;;109552;1251;58890;-81
2023/12/22 08:42:59;;;;;;;17.00;8.80;;;;;;;;;;109541;1251;59262;-80
2023/12/22 08:45:28;;;;;;;25.70;11.40;;;;;;;;;;109543;1251;61320;-81
2023/12/22 08:47:55;;;;;;;13.20;6.70;;;;;;;;;;108879;1254;59567;-81
2023/12/22 08:50:22;;;;;;;16.00;7.70;;;;;;;;;;107070;1256;60352;-81
2023/12/22 08:52:48;;;;;;;6.90;3.90;;;;;;;;;;107043;1253;60344;-80
2023/12/22 08:55:16;;;;;;;8.00;4.20;;;;;;;;;;107035;1251;59894;-80
2023/12/22 08:57:42;;;;;;;6.40;2.90;;;;;;;;;;109529;1251;62012;-80
2023/12/22 09:00:09;;;;;;;17.50;8.40;;;;;;;;;;109540;1251;58876;-80
2023/12/22 09:02:35;;;;;;;37.50;15.00;;;;;;;;;;107185;1251;61044;-80
2023/12/22 09:05:02;;;;;;;20.90;8.70;;;;;;;;;;107134;1251;60844;-80
2023/12/22 09:07:28;;;;;;;25.00;9.50;;;;;;;;;;107261;1255;60980;-80
2023/12/22 09:09:55;;;;;;;18.20;8.80;;;;;;;;;;107183;1251;62674;-80
2023/12/22 09:12:21;;;;;;;12.00;6.40;;;;;;;;;;107019;1251;59893;-80
2023/12/22 09:14:49;;;;;;;10.30;5.30;;;;;;;;;;107179;1256;62125;-80
2023/12/22 09:17:16;;;;;;;9.70;4.90;;;;;;;;;;107568;1251;60899;-80
2023/12/22 09:19:42;;;;;;;8.00;2.80;;;;;;;;;;107608;1256;59828;-80
2023/12/22 09:22:09;;;;;;;5.00;2.20;;;;;;;;;;107050;1251;59882;-80
2023/12/22 09:24:36;;;;;;;7.10;4.00;;;;;;;;;;107966;1254;59816;-80
2023/12/22 09:27:04;;;;;;;11.10;2.20;;;;;;;;;;106758;1251;61039;-80
2023/12/22 09:29:35;;;;;;;10.60;3.70;;;;;;;;;;107334;1251;59802;-80
2023/12/22 09:32:02;;;;;;;5.90;3.50;;;;;;;;;;107696;1255;61387;-80
2023/12/22 09:34:29;;;;;;;6.50;3.30;;;;;;;;;;106972;1251;61268;-80
2023/12/22 09:36:55;;;;;;;10.40;4.50;;;;;;;;;;106985;1251;59685;-80
2023/12/22 09:39:22;;;;;;;4.60;2.90;;;;;;;;;;106731;1254;60938;-80
2023/12/22 09:41:49;;;;;;;7.50;4.80;;;;;;;;;;106952;1255;60232;-80
2023/12/22 09:44:19;;;;;;;8.20;2.80;;;;;;;;;;106679;1253;59835;-80
2023/12/22 09:46:46;;;;;;;6.50;3.20;;;;;;;;;;106785;1251;61938;-80
2023/12/22 09:49:12;;;;;;;9.10;3.80;;;;;;;;;;107290;1251;59850;-80
2023/12/22 09:51:39;;;;;;;10.40;3.70;;;;;;;;;;107217;1252;60062;-81
2023/12/22 09:54:06;;;;;;;4.80;2.60;;;;;;;;;;106746;1252;59900;-80
2023/12/22 09:56:33;;;;;;;4.40;2.70;;;;;;;;;;106907;1251;60739;-80
2023/12/22 09:59:00;;;;;;;84.80;32.40;;;;;;;;;;107232;1251;60713;-80
2023/12/22 10:01:26;;;;;;;30.50;9.60;;;;;;;;;;107732;1253;59880;-80
2023/12/22 10:03:53;;;;;;;76.30;27.90;;;;;;;;;;106591;1251;62012;-80
2023/12/22 10:06:20;;;;;;;39.60;15.10;;;;;;;;;;106846;1251;59755;-79
2023/12/22 10:08:46;;;;;;;38.00;15.00;;;;;;;;;;106647;1251;61064;-80
2023/12/22 10:11:13;;;;;;;14.30;5.80;;;;;;;;;;106752;1254;59902;-80
2023/12/22 10:13:40;;;;;;;22.80;9.60;;;;;;;;;;106600;1256;61875;-80
2023/12/22 10:16:06;;;;;;;9.10;3.80;;;;;;;;;;106682;1256;59930;-80
2023/12/22 10:18:33;;;;;;;16.20;7.00;;;;;;;;;;106594;1251;59851;-80
2023/12/22 10:21:00;;;;;;;78.30;31.60;;;;;;;;;;106748;1255;61977;-80
2023/12/22 10:23:27;;;;;;;39.00;13.20;;;;;;;;;;106795;1251;60766;-80
2023/12/22 10:25:55;;;;;;;53.40;22.10;;;;;;;;;;106916;1251;60767;-81
2023/12/22 10:28:24;;;;;;;28.30;13.30;;;;;;;;;;106694;1251;61983;-80
2023/12/22 10:30:51;;;;;;;41.80;16.60;;;;;;;;;;106718;1254;59838;-80
2023/12/22 10:33:18;;;;;;;50.60;22.40;;;;;;;;;;106604;1251;60793;-80
2023/12/22 10:35:44;;;;;;;8.70;4.40;;;;;;;;;;106842;1251;61830;-79
2023/12/22 10:38:11;;;;;;;16.10;7.20;;;;;;;;;;106865;1251;62031;-80
2023/12/22 10:40:37;;;;;;;14.70;5.50;;;;;;;;;;106584;1251;60780;-80
2023/12/22 10:58:10;;;;;;;8.10;3.50;;;;;;;;;;107822;1255;61767;-80
2023/12/22 11:00:37;;;;;;;10.50;4.50;;;;;;;;;;107635;1257;59645;-80
2023/12/22 11:03:05;;;;;;;9.70;3.50;;;;;;;;;;108147;1253;61682;-79
2023/12/22 11:05:32;;;;;;;11.30;4.70;;;;;;;;;;107676;1254;59582;-80
2023/12/22 11:08:01;;;;;;;9.30;4.40;;;;;;;;;;108168;1253;59848;-80
2023/12/22 11:10:28;;;;;;;;;;;;;;;;;;108311;1254;59795;-80
2023/12/22 11:12:54;;;;;;;8.60;4.90;;;;;;;;;;109180;1254;58801;-80
2023/12/22 11:15:21;;;;;;;9.50;4.90;;;;;;;;;;107587;1256;60851;-80
2023/12/22 11:17:48;;;;;;;12.50;6.90;;;;;;;;;;108026;1254;59187;-79
2023/12/22 11:20:15;;;;;;;10.40;5.00;;;;;;;;;;107444;1254;59731;-80
2023/12/22 11:22:42;;;;;;;10.50;4.40;;;;;;;;;;107248;1254;60192;-80
2023/12/22 11:25:08;;;;;;;12.80;3.60;;;;;;;;;;106733;1254;60326;-80
2023/12/22 11:27:35;;;;;;;13.00;4.90;;;;;;;;;;106689;1253;62579;-80
2023/12/22 11:30:02;;;;;;;10.00;4.30;;;;;;;;;;106592;1254;60667;-80
2023/12/22 11:32:29;;;;;;;8.80;4.50;;;;;;;;;;106493;1254;60001;-80
2023/12/22 11:34:56;;;;;;;5.00;2.00;;;;;;;;;;106750;1254;59829;-80
2023/12/22 11:37:23;;;;;;;16.00;8.30;;;;;;;;;;106702;1253;59848;-80
2023/12/22 11:39:49;;;;;;;15.40;5.90;;;;;;;;;;106793;1254;60623;-80
2023/12/22 11:42:24;;;;;;;31.20;13.30;;;;;;;;;;106799;1255;59761;-80
2023/12/22 11:44:52;;;;;;;29.40;13.40;;;;;;;;;;106623;1255;59847;-81
2023/12/22 11:47:21;;;;;;;20.20;8.30;;;;;;;;;;106577;1254;62002;-80
2023/12/22 11:49:50;;;;;;;45.00;17.50;;;;;;;;;;106585;1254;60922;-81
2023/12/22 11:52:17;;;;;;;48.10;18.90;;;;;;;;;;106635;1254;62560;-80
2023/12/22 11:54:47;;;;;;;98.50;36.70;;;;;;;;;;106805;1254;60318;-80
2023/12/22 11:57:26;;;;;;;68.50;26.40;;;;;;;;;;106596;1254;60730;-80
2023/12/22 11:59:53;;;;;;;86.00;28.00;;;;;;;;;;106527;1255;61434;-80
2023/12/22 12:02:20;;;;;;;107.80;39.70;;;;;;;;;;106715;1254;60856;-80
2023/12/22 12:04:53;;;;;;;99.10;33.80;;;;;;;;;;106850;1251;61114;-80
2023/12/22 12:07:39;;;;;;;88.80;36.00;;;;;;;;;;106681;1251;59751;-79
2023/12/22 12:10:08;;;;;;;51.90;19.30;;;;;;;;;;106633;1254;60702;-79
2023/12/22 12:12:36;;;;;;;45.10;18.80;;;;;;;;;;106843;1251;59683;-80
2023/12/22 12:15:23;;;;;;;15.00;7.50;;;;;;;;;;106802;1254;60655;-80
2023/12/22 12:17:49;;;;;;;27.10;11.90;;;;;;;;;;106605;1253;63126;-80
2023/12/22 12:20:16;;;;;;;52.90;23.50;;;;;;;;;;106628;1255;60600;-80
2023/12/22 12:22:42;;;;;;;43.60;18.30;;;;;;;;;;106688;1254;59763;-80
2023/12/22 12:25:10;;;;;;;9.00;5.30;;;;;;;;;;106660;1253;59826;-80
2023/12/22 12:27:38;;;;;;;14.00;7.50;;;;;;;;;;106713;1252;59803;-80
2023/12/22 12:30:09;;;;;;;39.20;16.70;;;;;;;;;;106598;1254;61945;-80
2023/12/22 12:32:36;;;;;;;23.10;10.20;;;;;;;;;;106556;1258;60832;-79
2023/12/22 12:35:03;;;;;;;43.30;19.60;;;;;;;;;;106700;1254;59761;-80
2023/12/22 12:37:31;;;;;;;40.50;17.40;;;;;;;;;;106716;1253;59256;-80
2023/12/22 12:39:59;;;;;;;21.00;8.60;;;;;;;;;;107057;1254;59804;-80
2023/12/22 12:42:26;;;;;;;32.00;11.10;;;;;;;;;;106977;1254;62907;-81
2023/12/22 12:44:52;;;;;;;30.70;12.70;;;;;;;;;;107261;1254;59300;-80
2023/12/22 12:47:19;;;;;;;7.90;3.90;;;;;;;;;;107263;1256;60761;-81
2023/12/22 12:49:46;;;;;;;20.60;8.80;;;;;;;;;;107204;1257;62117;-80
2023/12/22 12:52:15;;;;;;;12.70;5.00;;;;;;;;;;107181;1254;59750;-80
2023/12/22 12:54:42;;;;;;;18.10;7.90;;;;;;;;;;107152;1252;61645;-81
2023/12/22 12:57:13;;;;;;;7.10;3.50;;;;;;;;;;107188;1254;60931;-80
2023/12/22 12:59:39;;;;;;;25.10;9.80;;;;;;;;;;107209;1256;60728;-80
2023/12/22 13:02:06;;;;;;;20.20;7.70;;;;;;;;;;107066;1254;61247;-80
2023/12/22 13:04:39;;;;;;;30.50;16.20;;;;;;;;;;106933;1253;60814;-80
2023/12/22 13:07:05;;;;;;;13.20;6.00;;;;;;;;;;107246;1254;61656;-80
2023/12/22 13:09:33;;;;;;;7.10;2.50;;;;;;;;;;107207;1254;60858;-80
2023/12/22 13:11:59;;;;;;;19.60;10.60;;;;;;;;;;106967;1254;60931;-80
2023/12/22 13:14:26;;;;;;;11.80;6.40;;;;;;;;;;106893;1254;59740;-80
2023/12/22 13:16:55;;;;;;;5.30;3.00;;;;;;;;;;107014;1251;59776;-80
2023/12/22 13:19:22;;;;;;;9.10;4.10;;;;;;;;;;106833;1257;62843;-80
2023/12/22 13:21:49;;;;;;;11.50;4.80;;;;;;;;;;106903;1254;59471;-80
2023/12/22 13:24:16;;;;;;;15.30;5.00;;;;;;;;;;106802;1254;60501;-80
2023/12/22 13:26:42;;;;;;;24.90;9.60;;;;;;;;;;107003;1251;59901;-79
2023/12/22 13:29:09;;;;;;;16.10;6.90;;;;;;;;;;106970;1251;60870;-79
2023/12/22 13:31:36;;;;;;;212.00;60.10;;;;;;;;;;106831;1252;62155;-80
2023/12/22 13:34:03;;;;;;;18.10;6.20;;;;;;;;;;106822;1255;59758;-80
2023/12/22 13:36:39;;;;;;;34.30;12.80;;;;;;;;;;106659;1254;59733;-80
2023/12/22 13:39:06;;;;;;;21.50;8.30;;;;;;;;;;107123;1254;59828;-79
2023/12/22 13:41:33;;;;;;;5.50;2.30;;;;;;;;;;106715;1254;60528;-79
2023/12/22 13:44:04;;;;;;;19.60;6.90;;;;;;;;;;106676;1254;60403;-80
2023/12/22 13:46:31;;;;;;;33.20;14.80;;;;;;;;;;106764;1254;59721;-81
2023/12/22 13:48:58;;;;;;;18.00;9.70;;;;;;;;;;107366;1251;59789;-80
2023/12/22 13:51:25;;;;;;;9.20;5.50;;;;;;;;;;106875;1254;60784;-80
2023/12/22 13:53:51;;;;;;;9.80;5.00;;;;;;;;;;106794;1253;59884;-80
2023/12/22 13:56:18;;;;;;;10.40;3.40;;;;;;;;;;106796;1253;60778;-80
2023/12/22 13:58:45;;;;;;;8.50;5.00;;;;;;;;;;106965;1254;60439;-80
2023/12/22 14:01:13;;;;;;;15.20;6.70;;;;;;;;;;106871;1254;60967;-80
2023/12/22 14:03:39;;;;;;;9.10;4.70;;;;;;;;;;107316;1253;62053;-80
2023/12/22 14:06:08;;;;;;;10.60;4.80;;;;;;;;;;106785;1253;59883;-80
2023/12/22 14:08:35;;;;;;;7.40;4.10;;;;;;;;;;107062;1254;62736;-80
2023/12/22 14:11:02;;;;;;;41.60;15.70;;;;;;;;;;106943;1254;59861;-80
2023/12/22 14:13:29;;;;;;;21.60;12.90;;;;;;;;;;106767;1253;60634;-80
2023/12/22 14:15:55;;;;;;;30.00;12.40;;;;;;;;;;106945;1254;59769;-79
2023/12/22 14:18:22;;;;;;;37.40;14.40;;;;;;;;;;107349;1253;59680;-81
2023/12/22 14:20:48;;;;;;;22.40;9.80;;;;;;;;;;107081;1253;60106;-80
2023/12/22 14:23:16;;;;;;;23.40;10.40;;;;;;;;;;106891;1254;59733;-80
2023/12/22 14:25:43;;;;;;;19.50;8.80;;;;;;;;;;106748;1253;60681;-80
2023/12/22 14:28:09;;;;;;;17.50;7.90;;;;;;;;;;106925;1254;60797;-80
2023/12/22 14:30:36;;;;;;;19.90;8.80;;;;;;;;;;106945;1252;59335;-80
2023/12/22 14:33:02;;;;;;;10.90;4.80;;;;;;;;;;106842;1253;60987;-80
2023/12/22 14:35:29;;;;;;;13.30;6.00;;;;;;;;;;106776;1254;60706;-80
2023/12/22 14:37:56;;;;;;;18.50;7.00;;;;;;;;;;106819;1254;61016;-80